Time;durP1;ratioP1;P1;durP2;ratioP2;P2;SDS_P1;SDS_P2;PMS_P1;PMS_P2;Temp;Humidity;BMP_temperature;BMP_pressure;BME280_temperature;BME280_humidity;BME280_pressure;Samples;Min_cycle;Max_cycle;Signal;HPM_P1;HPM_P2
2021/03/17 00:02:41;;;;;;;7.25;1.58;;;;;;;4.92;82.00;101542.09;4974470;28;20523;-78
2021/03/17 00:05:33;;;;;;;5.70;1.40;;;;;;;4.90;81.82;101544.28;4977374;28;20081;-79
2021/03/17 00:08:19;;;;;;;6.97;1.67;;;;;;;4.87;81.79;101547.53;4970694;28;20042;-78
2021/03/17 00:11:03;;;;;;;8.65;1.52;;;;;;;4.89;81.78;101548.03;4977559;28;20422;-80
2021/03/17 00:13:46;;;;;;;6.75;1.52;;;;;;;4.91;81.60;101543.19;4968032;28;20118;-79
2021/03/17 00:16:30;;;;;;;7.90;1.40;;;;;;;4.89;82.04;101541.91;4977493;28;20053;-80
2021/03/17 00:19:15;;;;;;;8.52;1.73;;;;;;;4.81;82.38;101551.38;4975899;28;21660;-80
2021/03/17 00:21:59;;;;;;;8.88;1.45;;;;;;;4.85;82.74;101543.56;4976968;28;20040;-80
2021/03/17 00:24:43;;;;;;;8.05;1.63;;;;;;;4.87;82.61;101539.53;4976746;28;20078;-80
2021/03/17 00:27:27;;;;;;;7.25;1.50;;;;;;;4.83;82.66;101548.41;4960133;28;20538;-78
2021/03/17 00:30:12;;;;;;;8.70;1.77;;;;;;;4.86;82.44;101550.50;4992536;23;20393;-76
2021/03/17 00:32:56;;;;;;;7.00;1.67;;;;;;;4.86;82.54;101548.59;4972231;28;20077;-76
2021/03/17 00:35:41;;;;;;;5.03;1.42;;;;;;;4.91;82.33;101548.53;4969142;28;20057;-74
2021/03/17 00:38:25;;;;;;;11.80;1.85;;;;;;;4.89;82.68;101552.56;4988604;28;20061;-76
2021/03/17 00:41:11;;;;;;;7.38;1.73;;;;;;;5.00;82.25;101552.09;4982487;28;20605;-76
2021/03/17 00:43:55;;;;;;;5.50;1.50;;;;;;;4.97;82.14;101546.56;4980042;28;20398;-75
2021/03/17 00:46:38;;;;;;;5.13;1.38;;;;;;;4.96;82.58;101545.75;4979272;28;20105;-76
2021/03/17 00:49:11;;;;;;;6.53;1.30;;;;;;;4.95;82.71;101546.88;4978083;28;20026;-75
2021/03/17 00:51:37;;;;;;;5.97;1.50;;;;;;;4.97;82.58;101544.69;4977639;28;20037;-75
2021/03/17 00:54:22;;;;;;;4.03;1.23;;;;;;;5.05;81.75;101543.97;4978913;28;20085;-75
2021/03/17 00:56:56;;;;;;;8.00;1.60;;;;;;;5.01;82.20;101544.88;4995299;28;20522;-76
2021/03/17 00:59:21;;;;;;;10.27;1.60;;;;;;;5.02;82.34;101551.78;4990351;28;20042;-75
2021/03/17 01:01:47;;;;;;;5.68;1.50;;;;;;;5.02;81.83;101533.91;4993604;28;20031;-74
2021/03/17 01:04:12;;;;;;;12.02;1.60;;;;;;;4.98;82.25;101538.25;4978605;28;20619;-76
2021/03/17 01:06:38;;;;;;;14.27;1.30;;;;;;;5.08;82.05;101540.75;4979602;28;20046;-75
2021/03/17 01:09:04;;;;;;;7.13;1.42;;;;;;;4.95;82.22;101546.88;4992246;28;20035;-76
2021/03/17 01:11:30;;;;;;;7.70;1.42;;;;;;;4.87;83.15;101539.53;4977917;28;20031;-74
2021/03/17 01:13:56;;;;;;;8.52;1.73;;;;;;;4.90;83.06;101538.94;4977630;28;20026;-76
2021/03/17 01:16:21;;;;;;;4.53;1.20;;;;;;;4.90;82.63;101546.94;4977358;28;20482;-76
2021/03/17 01:18:47;;;;;;;6.82;2.03;;;;;;;4.86;83.13;101537.16;4977358;28;20507;-73
2021/03/17 01:21:12;;;;;;;4.93;1.77;;;;;;;4.89;83.03;101539.22;4976443;28;20129;-76
2021/03/17 01:23:38;;;;;;;6.93;1.63;;;;;;;4.90;82.78;101530.13;4983485;28;20042;-76
2021/03/17 01:26:03;;;;;;;9.15;1.50;;;;;;;4.76;83.09;101540.81;4978275;28;20495;-76
2021/03/17 01:28:29;;;;;;;8.77;1.58;;;;;;;4.74;83.65;101544.84;4973457;28;20077;-75
2021/03/17 01:30:57;;;;;;;6.95;1.40;;;;;;;4.81;83.26;101540.69;4973155;28;20442;-76
2021/03/17 01:33:27;;;;;;;11.48;1.80;;;;;;;4.77;83.30;101549.56;4973432;28;20093;-74
2021/03/17 01:35:54;;;;;;;7.80;2.05;;;;;;;4.55;84.23;101551.00;4972586;28;20076;-75
2021/03/17 01:38:20;;;;;;;4.50;1.45;;;;;;;4.51;84.45;101549.22;4972628;28;20070;-75
2021/03/17 01:40:47;;;;;;;3.35;1.25;;;;;;;4.46;84.31;101543.97;4973599;28;20551;-75
2021/03/17 01:43:13;;;;;;;11.43;1.77;;;;;;;4.49;84.49;101546.06;4970955;28;20542;-76
2021/03/17 01:45:40;;;;;;;2.53;1.65;;;;;;;4.32;85.28;101546.59;4972125;28;20614;-76
2021/03/17 01:48:06;;;;;;;5.75;1.30;;;;;;;4.33;85.14;101550.84;4972815;28;20101;-75
2021/03/17 01:50:36;;;;;;;7.90;1.60;;;;;;;4.23;85.46;101550.19;4965062;28;20054;-75
2021/03/17 01:53:08;;;;;;;3.85;1.38;;;;;;;4.32;85.03;101554.59;4966901;28;20038;-74
2021/03/17 01:55:34;;;;;;;9.18;1.40;;;;;;;4.03;86.41;101545.16;4973850;28;20041;-75
2021/03/17 01:58:00;;;;;;;4.75;1.45;;;;;;;4.19;85.76;101551.84;4973935;28;20515;-75
2021/03/17 02:00:25;;;;;;;7.22;1.23;;;;;;;3.92;86.98;101554.38;4971353;28;20058;-75
2021/03/17 02:02:53;;;;;;;6.45;1.80;;;;;;;3.73;88.04;101561.56;4973435;28;20046;-75
2021/03/17 02:05:40;;;;;;;6.90;1.40;;;;;;;3.54;88.61;101553.56;4972597;28;20058;-74
2021/03/17 02:08:39;;;;;;;8.70;1.52;;;;;;;3.54;88.93;101551.69;4969685;28;20074;-75
2021/03/17 02:11:05;;;;;;;5.47;1.35;;;;;;;3.47;89.47;101547.78;4944408;28;20051;-75
2021/03/17 02:13:31;;;;;;;7.13;1.17;;;;;;;3.42;89.76;101553.19;4971654;28;20053;-75
2021/03/17 02:16:33;;;;;;;7.72;1.60;;;;;;;3.60;88.96;101542.56;4973293;28;20039;-75
2021/03/17 02:19:10;;;;;;;7.32;1.10;;;;;;;3.43;89.50;101544.91;4961661;28;20065;-75
2021/03/17 02:22:13;;;;;;;5.38;1.60;;;;;;;3.24;90.12;101554.72;4953799;28;20042;-75
2021/03/17 02:25:00;;;;;;;5.53;1.33;;;;;;;3.24;90.84;101557.38;4972348;28;20133;-74
2021/03/17 02:27:51;;;;;;;5.30;1.10;;;;;;;3.07;92.17;101545.59;4984739;28;20035;-76
2021/03/17 02:30:24;;;;;;;5.57;1.40;;;;;;;3.02;92.26;101556.28;4974415;28;20050;-74
2021/03/17 02:33:01;;;;;;;8.38;1.25;;;;;;;3.04;91.82;101546.94;4977102;28;20030;-74
2021/03/17 02:35:30;;;;;;;4.25;1.15;;;;;;;2.94;92.27;101543.59;4973003;28;20126;-75
2021/03/17 02:37:59;;;;;;;3.47;1.40;;;;;;;2.87;92.41;101545.78;4970777;28;20026;-75
2021/03/17 02:40:32;;;;;;;7.38;1.30;;;;;;;2.84;92.45;101541.84;4972226;28;20042;-75
2021/03/17 02:43:11;;;;;;;5.97;1.35;;;;;;;2.77;92.69;101543.25;4972876;28;20038;-76
2021/03/17 02:45:40;;;;;;;5.13;1.30;;;;;;;2.79;92.79;101544.53;4971017;28;20061;-75
2021/03/17 02:48:12;;;;;;;3.63;1.35;;;;;;;2.65;93.57;101544.38;4972602;28;20034;-75
2021/03/17 02:50:42;;;;;;;8.32;1.48;;;;;;;2.66;93.13;101547.84;4968265;28;20065;-74
2021/03/17 02:53:10;;;;;;;11.70;1.45;;;;;;;2.63;93.54;101543.09;4970741;28;20049;-75
2021/03/17 02:55:43;;;;;;;9.65;1.58;;;;;;;2.57;93.12;101539.69;4966923;28;20030;-75
2021/03/17 02:58:10;;;;;;;8.18;1.35;;;;;;;2.47;93.87;101549.59;4982266;28;20407;-75
2021/03/17 03:00:36;;;;;;;5.70;1.35;;;;;;;2.48;94.29;101540.56;4970497;28;20043;-75
2021/03/17 03:03:02;;;;;;;7.22;1.70;;;;;;;2.44;94.02;101544.88;4963897;28;20051;-74
2021/03/17 03:05:28;;;;;;;3.42;1.73;;;;;;;2.39;94.09;101544.88;4975104;28;20030;-74
2021/03/17 03:07:56;;;;;;;6.72;1.60;;;;;;;2.41;94.34;101543.53;4972564;28;20034;-74
2021/03/17 03:10:24;;;;;;;5.90;1.63;;;;;;;2.40;94.28;101544.59;4969892;28;20035;-75
2021/03/17 03:12:51;;;;;;;6.85;1.52;;;;;;;2.27;94.54;101549.75;4970854;28;20403;-75
2021/03/17 03:15:18;;;;;;;6.15;1.77;;;;;;;2.31;95.10;101548.13;4969662;28;20035;-74
2021/03/17 03:17:45;;;;;;;7.03;1.45;;;;;;;2.32;95.19;101550.50;4968528;28;20031;-75
2021/03/17 03:20:16;;;;;;;6.60;1.83;;;;;;;2.23;95.22;101549.53;4971242;28;20042;-75
2021/03/17 03:22:44;;;;;;;6.50;2.20;;;;;;;2.23;95.51;101552.19;4969665;28;20051;-75
2021/03/17 03:25:10;;;;;;;7.18;2.10;;;;;;;2.23;95.53;101556.69;4968623;28;20041;-75
2021/03/17 03:27:36;;;;;;;9.35;1.60;;;;;;;2.21;96.11;101554.31;4969247;28;20391;-76
2021/03/17 03:30:11;;;;;;;4.90;1.40;;;;;;;2.23;96.17;101554.84;4971352;28;20035;-75
2021/03/17 03:32:37;;;;;;;6.78;2.00;;;;;;;2.33;95.68;101549.44;4972365;28;20372;-75
2021/03/17 03:35:08;;;;;;;8.43;2.17;;;;;;;2.27;95.81;101552.41;4967777;28;20038;-77
2021/03/17 03:37:34;;;;;;;;;;;;;;;2.29;95.81;101559.03;4971415;28;20122;-75
2021/03/17 03:40:00;;;;;;;8.77;2.30;;;;;;;2.25;95.83;101559.88;4981985;28;20295;-74
2021/03/17 03:42:25;;;;;;;7.28;2.38;;;;;;;2.29;95.64;101560.91;4967361;28;20046;-74
2021/03/17 03:44:51;;;;;;;4.97;1.95;;;;;;;2.25;96.42;101559.88;4970083;28;20118;-75
2021/03/17 03:47:16;;;;;;;6.85;2.42;;;;;;;2.32;95.81;101568.34;4971731;28;20051;-74
2021/03/17 03:49:42;;;;;;;10.50;2.20;;;;;;;2.28;95.72;101559.31;4969878;28;20031;-75
2021/03/17 03:52:15;;;;;;;13.07;2.30;;;;;;;2.29;96.27;101558.25;4970319;28;20035;-75
2021/03/17 03:54:52;;;;;;;9.68;2.08;;;;;;;2.24;96.82;101558.28;4971517;28;20537;-75
2021/03/17 03:57:27;;;;;;;8.23;1.85;;;;;;;2.29;96.64;101564.34;4968666;28;20031;-74
2021/03/17 04:00:00;;;;;;;4.97;1.92;;;;;;;2.29;96.10;101561.69;4971142;28;20491;-75
2021/03/17 04:02:27;;;;;;;6.68;2.10;;;;;;;2.14;97.06;101563.66;4971699;28;20035;-75
2021/03/17 04:04:57;;;;;;;9.68;1.55;;;;;;;2.17;96.70;101571.09;4970801;28;20035;-75
2021/03/17 04:07:23;;;;;;;4.82;1.63;;;;;;;2.19;96.91;101571.63;4970246;28;20558;-75
2021/03/17 04:09:51;;;;;;;6.70;1.80;;;;;;;2.07;97.45;101571.16;4971248;28;20133;-75
2021/03/17 04:12:22;;;;;;;5.95;2.10;;;;;;;1.99;97.43;101569.88;4971787;28;20035;-75
2021/03/17 04:14:52;;;;;;;5.50;1.90;;;;;;;2.04;97.53;101577.00;4970530;28;20126;-74
2021/03/17 04:17:25;;;;;;;9.27;2.50;;;;;;;2.08;97.17;101578.03;4968948;28;20077;-75
2021/03/17 04:20:10;;;;;;;11.63;2.22;;;;;;;2.06;97.60;101577.53;4970884;28;20054;-75
2021/03/17 04:22:37;;;;;;;5.65;2.05;;;;;;;2.00;97.41;101575.97;4969784;28;20035;-75
2021/03/17 04:25:05;;;;;;;10.38;2.42;;;;;;;2.02;98.00;101577.28;4971211;28;20053;-76
2021/03/17 04:27:33;;;;;;;9.95;2.42;;;;;;;2.02;98.07;101579.94;4971697;28;20119;-76
2021/03/17 04:30:03;;;;;;;9.93;1.83;;;;;;;1.97;98.16;101587.16;4971503;28;20031;-75
2021/03/17 04:32:29;;;;;;;9.43;2.55;;;;;;;1.97;98.22;101585.28;4975088;28;20511;-75
2021/03/17 04:34:56;;;;;;;8.90;2.10;;;;;;;1.98;98.26;101588.72;4974818;28;20034;-75
2021/03/17 04:37:22;;;;;;;6.03;2.38;;;;;;;2.22;97.29;101589.66;4972410;28;20582;-75
2021/03/17 04:39:50;;;;;;;8.07;2.30;;;;;;;2.30;96.38;101591.72;4979206;28;20502;-75
2021/03/17 04:42:16;;;;;;;7.07;2.30;;;;;;;2.22;96.37;101581.69;4980300;28;20034;-75
2021/03/17 04:44:41;;;;;;;8.32;2.63;;;;;;;2.23;97.11;101585.91;4975129;28;20037;-75
2021/03/17 04:47:12;;;;;;;11.85;2.15;;;;;;;2.24;96.58;101584.84;4980030;28;20080;-74
2021/03/17 04:49:40;;;;;;;11.33;2.50;;;;;;;2.12;97.14;101581.75;4982458;28;20038;-76
2021/03/17 04:52:06;;;;;;;9.30;2.42;;;;;;;2.11;97.46;101577.50;4971466;28;20038;-75
2021/03/17 04:54:32;;;;;;;8.57;2.20;;;;;;;2.11;97.31;101582.81;4977222;28;20089;-75
2021/03/17 04:56:58;;;;;;;7.68;2.30;;;;;;;1.98;98.25;101586.88;4989128;28;20507;-75
2021/03/17 04:59:25;;;;;;;11.77;2.60;;;;;;;1.95;98.39;101587.44;4973447;28;20034;-75
2021/03/17 05:01:52;;;;;;;9.00;3.10;;;;;;;1.84;98.93;101593.84;4971613;28;20173;-75
2021/03/17 05:04:18;;;;;;;6.10;2.78;;;;;;;1.79;99.13;101592.00;4982932;28;20035;-75
2021/03/17 05:06:47;;;;;;;11.07;2.85;;;;;;;1.85;98.75;101592.78;4973950;28;20054;-75
2021/03/17 05:09:15;;;;;;;9.77;3.05;;;;;;;1.88;98.42;101596.75;4977811;28;20022;-75
2021/03/17 05:11:42;;;;;;;7.03;3.13;;;;;;;1.76;99.39;101587.22;4984848;28;20031;-75
2021/03/17 05:14:08;;;;;;;8.98;2.47;;;;;;;1.87;98.61;101592.50;4974658;28;20041;-75
2021/03/17 05:16:35;;;;;;;8.07;2.65;;;;;;;1.79;98.71;101591.22;4973797;28;20026;-75
2021/03/17 05:19:03;;;;;;;13.00;2.65;;;;;;;1.80;98.99;101592.81;4966368;28;20058;-75
2021/03/17 05:21:32;;;;;;;7.32;2.47;;;;;;;1.90;98.45;101592.75;4973612;28;20161;-76
2021/03/17 05:23:58;;;;;;;11.15;3.33;;;;;;;2.02;97.73;101601.19;4971939;28;20042;-75
2021/03/17 05:26:24;;;;;;;9.23;2.42;;;;;;;1.99;97.37;101598.28;4973946;28;20086;-75
2021/03/17 05:28:51;;;;;;;5.97;3.10;;;;;;;2.05;97.91;101602.50;4973320;28;20031;-75
2021/03/17 05:31:23;;;;;;;13.98;3.08;;;;;;;2.16;96.90;101594.22;4968274;28;20496;-75
2021/03/17 05:33:50;;;;;;;8.88;3.10;;;;;;;2.16;97.32;101601.38;4970064;28;20561;-75
2021/03/17 05:36:16;;;;;;;8.43;3.05;;;;;;;2.06;97.74;101594.25;4972256;28;20030;-75
2021/03/17 05:38:41;;;;;;;9.77;3.28;;;;;;;2.14;98.16;101603.50;4968644;28;20026;-75
2021/03/17 05:41:07;;;;;;;8.35;3.17;;;;;;;2.13;98.43;101608.03;4968607;28;20043;-76
2021/03/17 05:43:33;;;;;;;8.57;3.00;;;;;;;2.21;97.87;101606.63;4977360;28;20039;-75
2021/03/17 05:46:06;;;;;;;10.30;3.40;;;;;;;2.20;98.67;101613.84;4972766;28;20158;-75
2021/03/17 05:48:32;;;;;;;7.88;2.60;;;;;;;2.13;99.32;101609.91;4968290;28;20042;-75
2021/03/17 05:50:59;;;;;;;8.02;2.53;;;;;;;2.09;99.98;101606.97;4966110;28;20075;-76
2021/03/17 05:53:25;;;;;;;14.02;2.92;;;;;;;2.15;100.00;101611.19;4973093;28;20399;-76
2021/03/17 05:55:51;;;;;;;12.02;2.67;;;;;;;2.21;100.00;101611.94;4975687;28;20034;-76
2021/03/17 05:58:16;;;;;;;11.05;3.00;;;;;;;2.33;100.00;101617.72;4977816;28;20027;-75
2021/03/17 06:00:42;;;;;;;8.75;2.88;;;;;;;2.50;99.90;101623.47;4969732;28;20045;-75
2021/03/17 06:03:09;;;;;;;6.78;2.95;;;;;;;2.55;99.48;101621.59;4978221;28;20035;-75
2021/03/17 06:05:35;;;;;;;17.30;2.92;;;;;;;2.63;99.50;101623.63;4970788;28;20049;-75
2021/03/17 06:08:06;;;;;;;7.38;2.65;;;;;;;2.72;98.67;101629.94;4973221;28;20038;-75
2021/03/17 06:10:36;;;;;;;10.93;3.13;;;;;;;2.71;98.97;101631.00;4973496;28;20038;-75
2021/03/17 06:13:13;;;;;;;7.32;2.78;;;;;;;2.77;99.33;101634.41;4975478;28;20514;-75
2021/03/17 06:15:45;;;;;;;11.05;3.05;;;;;;;2.80;99.55;101633.88;4972444;28;20080;-75
2021/03/17 06:18:20;;;;;;;12.18;2.90;;;;;;;2.73;99.95;101636.03;4970773;28;20438;-75
2021/03/17 06:20:46;;;;;;;6.75;2.85;;;;;;;2.71;100.00;101638.97;4973016;28;20046;-75
2021/03/17 06:23:12;;;;;;;7.95;3.40;;;;;;;2.77;100.00;101637.06;4967662;28;20180;-75
2021/03/17 06:25:38;;;;;;;15.52;3.60;;;;;;;3.00;99.92;101636.34;4969647;28;20048;-75
2021/03/17 06:28:06;;;;;;;14.48;3.15;;;;;;;3.16;99.02;101637.81;4968941;28;20053;-76
2021/03/17 06:30:32;;;;;;;10.40;3.00;;;;;;;3.15;99.03;101641.56;5000969;23;20046;-78
2021/03/17 06:32:58;;;;;;;10.70;3.40;;;;;;;3.21;98.73;101643.09;4970466;28;20027;-77
2021/03/17 06:35:25;;;;;;;6.68;2.97;;;;;;;3.36;98.16;101639.47;4985657;28;20034;-77
2021/03/17 06:37:52;;;;;;;13.23;3.45;;;;;;;3.43;97.89;101638.06;4972675;28;20030;-77
2021/03/17 06:40:31;;;;;;;7.88;3.15;;;;;;;3.44;98.17;101631.69;4965361;28;20045;-78
2021/03/17 06:43:08;;;;;;;6.72;3.03;;;;;;;3.59;97.22;101633.38;4965225;28;20110;-80
2021/03/17 06:45:44;;;;;;;8.82;3.20;;;;;;;3.53;97.21;101639.81;4960213;28;20038;-78
2021/03/17 06:48:29;;;;;;;10.10;3.33;;;;;;;3.62;97.39;101630.94;4963341;28;20046;-77
2021/03/17 06:51:15;;;;;;;16.10;3.20;;;;;;;3.67;97.21;101633.56;4965655;28;20034;-78
2021/03/17 06:53:56;;;;;;;9.48;3.00;;;;;;;3.71;97.02;101640.97;4972569;28;20023;-78
2021/03/17 06:56:22;;;;;;;;;;;;;;;3.64;97.18;101644.75;4986674;28;20591;-77
2021/03/17 06:58:55;;;;;;;12.48;2.47;;;;;;;3.74;97.42;101640.38;4972798;28;19989;-77
2021/03/17 07:01:37;;;;;;;14.95;3.10;;;;;;;3.72;97.48;101646.00;4964037;28;20415;-77
2021/03/17 07:04:08;;;;;;;9.95;2.58;;;;;;;3.84;97.45;101642.91;4973287;28;20042;-78
2021/03/17 07:06:37;;;;;;;8.10;3.17;;;;;;;3.84;96.83;101648.25;4970447;28;20058;-77
2021/03/17 07:09:24;;;;;;;9.27;3.30;;;;;;;3.89;97.08;101646.31;4972613;28;20035;-77
2021/03/17 07:11:52;;;;;;;11.27;2.80;;;;;;;3.98;97.04;101654.47;4972098;28;20403;-78
2021/03/17 07:14:24;;;;;;;11.10;3.05;;;;;;;4.01;97.10;101654.69;4968834;28;20035;-78
2021/03/17 07:16:50;;;;;;;9.75;3.03;;;;;;;3.89;97.13;101662.28;4976855;28;20034;-79
2021/03/17 07:19:29;;;;;;;12.40;2.80;;;;;;;3.92;98.03;101669.75;4970000;28;20483;-79
2021/03/17 07:22:03;;;;;;;12.45;2.70;;;;;;;4.09;97.72;101650.59;4972445;28;20534;-78
2021/03/17 07:24:29;;;;;;;10.20;2.85;;;;;;;4.27;96.38;101653.31;4971439;28;20034;-79
2021/03/17 07:26:54;;;;;;;6.80;3.03;;;;;;;4.30;96.05;101651.91;4971545;28;20039;-78
2021/03/17 07:29:19;;;;;;;10.45;2.88;;;;;;;4.34;96.18;101648.38;4984158;28;20679;-78
2021/03/17 07:31:49;;;;;;;14.40;3.17;;;;;;;4.48;95.66;101648.47;4978704;28;20042;-78
2021/03/17 07:34:24;;;;;;;10.68;3.10;;;;;;;4.45;95.26;101655.16;4977446;28;20043;-79
2021/03/17 07:36:57;;;;;;;11.48;3.38;;;;;;;4.49;94.97;101664.16;4973594;28;20430;-79
2021/03/17 07:39:25;;;;;;;11.32;3.38;;;;;;;4.59;95.30;101661.34;4977806;28;20039;-78
2021/03/17 07:41:53;;;;;;;6.28;2.67;;;;;;;4.67;94.82;101651.91;4982783;28;20038;-79
2021/03/17 07:44:22;;;;;;;8.77;3.35;;;;;;;4.65;94.27;101654.06;4969923;28;20480;-78
2021/03/17 07:46:53;;;;;;;7.85;2.88;;;;;;;4.77;94.85;101661.63;4973483;28;20035;-79
2021/03/17 07:49:18;;;;;;;9.60;3.33;;;;;;;4.82;94.23;101659.66;4971391;28;20031;-81
2021/03/17 07:51:52;;;;;;;13.75;3.47;;;;;;;4.86;94.58;101658.00;4963563;28;20498;-79
2021/03/17 07:54:28;;;;;;;12.43;3.15;;;;;;;4.95;95.62;101664.28;4968985;28;20042;-80
2021/03/17 07:56:55;;;;;;;9.90;3.15;;;;;;;5.16;95.85;101670.06;4971490;28;20031;-80
2021/03/17 07:59:22;;;;;;;8.75;2.67;;;;;;;5.55;94.69;101672.31;4967165;28;20129;-78
2021/03/17 08:01:49;;;;;;;14.38;4.57;;;;;;;5.75;93.18;101672.69;4970923;28;20035;-78
2021/03/17 08:04:15;;;;;;;7.30;2.95;;;;;;;5.94;93.62;101672.66;4973065;28;20039;-79
2021/03/17 08:06:42;;;;;;;11.70;3.67;;;;;;;5.98;91.90;101679.75;4970871;28;20034;-78
2021/03/17 08:09:08;;;;;;;13.50;3.15;;;;;;;5.99;91.60;101688.56;4968327;28;20068;-80
2021/03/17 08:11:35;;;;;;;7.10;3.22;;;;;;;6.04;91.15;101696.50;4971505;28;20577;-78
2021/03/17 08:14:02;;;;;;;8.20;3.40;;;;;;;6.07;91.17;101680.66;4972120;28;20062;-79
2021/03/17 08:16:34;;;;;;;7.82;3.33;;;;;;;6.14;90.63;101688.25;4966445;28;20458;-79
2021/03/17 08:19:00;;;;;;;12.48;3.55;;;;;;;6.08;90.37;101692.13;4982175;28;20106;-78
2021/03/17 08:22:00;;;;;;;18.70;6.05;;;;;;;6.07;91.09;101696.69;4968646;28;20098;-79
2021/03/17 08:24:38;;;;;;;9.77;3.90;;;;;;;6.06;90.16;101700.44;4949372;28;20054;-79
2021/03/17 08:27:07;;;;;;;11.55;3.63;;;;;;;6.04;90.52;101702.63;4985874;28;20049;-79
2021/03/17 08:29:41;;;;;;;11.55;4.18;;;;;;;6.07;90.39;101703.91;4986244;28;20039;-79
2021/03/17 08:32:07;;;;;;;8.65;4.10;;;;;;;6.20;90.55;101709.25;4976186;28;20057;-79
2021/03/17 08:34:35;;;;;;;8.40;3.55;;;;;;;6.34;90.37;101706.56;4968554;28;20031;-80
2021/03/17 08:37:11;;;;;;;12.90;4.18;;;;;;;6.53;90.11;101709.88;4970230;28;20038;-79
2021/03/17 08:39:36;;;;;;;11.73;4.10;;;;;;;6.58;89.79;101711.66;4971584;28;20376;-79
2021/03/17 08:42:06;;;;;;;8.65;3.97;;;;;;;6.58;89.21;101707.09;4972745;28;20066;-78
2021/03/17 08:44:52;;;;;;;12.65;4.80;;;;;;;6.35;88.35;101719.63;4974485;28;20026;-78
2021/03/17 08:47:27;;;;;;;16.65;4.15;;;;;;;6.43;88.77;101715.44;4985432;28;20043;-79
2021/03/17 08:49:56;;;;;;;14.95;4.57;;;;;;;6.70;88.19;101714.59;4962014;28;20414;-79
2021/03/17 08:52:43;;;;;;;10.13;3.42;;;;;;;6.71;87.89;101714.31;4960242;28;20407;-79
2021/03/17 08:55:14;;;;;;;17.15;3.85;;;;;;;6.71;88.00;101711.63;4968759;28;20451;-79
2021/03/17 08:58:05;;;;;;;11.10;3.78;;;;;;;6.75;88.30;101712.59;4973757;28;20027;-78
2021/03/17 09:00:53;;;;;;;11.98;4.25;;;;;;;6.84;87.53;101713.47;4988983;28;20055;-80
2021/03/17 09:03:31;;;;;;;10.52;4.00;;;;;;;7.03;87.12;101708.72;4972151;28;20079;-79
2021/03/17 09:06:09;;;;;;;11.27;3.85;;;;;;;6.94;87.54;101712.44;4971884;28;20046;-79
2021/03/17 09:09:04;;;;;;;10.38;4.05;;;;;;;7.05;86.76;101717.22;4953402;28;20033;-78
2021/03/17 09:11:29;;;;;;;12.63;4.93;;;;;;;7.18;86.34;101712.94;4964486;28;20061;-79
2021/03/17 09:14:07;;;;;;;13.85;4.30;;;;;;;7.27;84.98;101717.25;4971936;28;20039;-79
2021/03/17 09:16:53;;;;;;;7.55;3.30;;;;;;;7.37;85.24;101723.44;4978383;28;20038;-80
2021/03/17 09:19:19;;;;;;;9.30;3.55;;;;;;;7.46;84.66;101726.94;4982353;28;20123;-79
2021/03/17 09:21:45;;;;;;;13.02;4.22;;;;;;;7.39;84.37;101727.41;4993661;28;20050;-79
2021/03/17 09:24:32;;;;;;;12.63;4.20;;;;;;;7.59;84.88;101728.78;4977903;28;20043;-79
2021/03/17 09:27:08;;;;;;;11.40;3.70;;;;;;;7.57;84.81;101733.66;4976203;28;20026;-79
2021/03/17 09:29:35;;;;;;;8.80;3.50;;;;;;;7.64;84.22;101740.16;4977977;28;20538;-79
2021/03/17 09:32:02;;;;;;;13.88;3.80;;;;;;;7.76;83.49;101739.56;4978867;28;20045;-79
2021/03/17 09:34:32;;;;;;;8.73;4.03;;;;;;;7.88;83.10;101737.88;4977072;28;20030;-79
2021/03/17 09:37:06;;;;;;;10.98;4.00;;;;;;;8.08;82.71;101739.22;4992889;28;20592;-79
2021/03/17 09:39:33;;;;;;;12.10;4.07;;;;;;;8.19;82.43;101741.31;4973850;28;20034;-79
2021/03/17 09:41:59;;;;;;;14.52;4.80;;;;;;;8.12;81.64;101742.84;4981181;28;20400;-79
2021/03/17 09:44:25;;;;;;;7.22;3.85;;;;;;;8.20;81.57;101742.91;4987549;28;20070;-79
2021/03/17 09:46:55;;;;;;;10.07;4.20;;;;;;;8.58;81.06;101748.53;4985973;28;20070;-79
2021/03/17 09:49:23;;;;;;;10.30;3.72;;;;;;;8.89;79.83;101759.91;4986878;28;20062;-79
2021/03/17 09:51:56;;;;;;;9.23;4.80;;;;;;;8.87;78.63;101745.22;4974367;28;20044;-79
2021/03/17 09:54:25;;;;;;;11.90;4.30;;;;;;;9.01;78.83;101752.03;4976182;28;20027;-79
2021/03/17 09:56:55;;;;;;;12.02;4.75;;;;;;;9.23;78.15;101756.44;4967275;28;20015;-79
2021/03/17 09:59:35;;;;;;;12.27;4.63;;;;;;;9.35;78.17;101753.09;4973172;28;20721;-80
2021/03/17 10:02:19;;;;;;;14.38;3.97;;;;;;;9.40;76.90;101747.56;4975486;28;20095;-79
2021/03/17 10:04:50;;;;;;;8.70;4.53;;;;;;;9.35;76.37;101755.78;4968972;28;20476;-79
2021/03/17 10:07:20;;;;;;;8.20;4.40;;;;;;;9.19;76.80;101752.00;4977759;28;20042;-79
2021/03/17 10:09:47;;;;;;;10.50;3.75;;;;;;;9.30;77.13;101759.44;4966749;28;20046;-79
2021/03/17 10:12:18;;;;;;;8.85;3.97;;;;;;;9.40;76.55;101758.31;4971802;28;20047;-79
2021/03/17 10:14:56;;;;;;;12.57;4.35;;;;;;;9.18;76.62;101751.22;4980939;28;20517;-79
2021/03/17 10:17:28;;;;;;;10.77;5.00;;;;;;;9.44;76.98;101764.63;4994866;28;20046;-79
2021/03/17 10:19:59;;;;;;;9.38;4.63;;;;;;;9.46;76.56;101757.03;4978139;28;20551;-79
2021/03/17 10:22:29;;;;;;;11.30;4.40;;;;;;;9.63;76.53;101762.38;4970779;28;20045;-79
2021/03/17 10:24:57;;;;;;;14.57;4.78;;;;;;;9.80;74.90;101760.41;4977509;28;20053;-79
2021/03/17 10:27:36;;;;;;;15.82;4.88;;;;;;;9.80;74.78;101773.06;4975008;28;20026;-79
2021/03/17 10:30:07;;;;;;;10.90;4.40;;;;;;;9.81;75.25;101769.28;4977077;28;20031;-79
2021/03/17 10:32:36;;;;;;;14.23;4.90;;;;;;;9.95;75.35;101775.22;4970094;28;20554;-79
2021/03/17 10:35:04;;;;;;;11.55;4.38;;;;;;;10.19;74.51;101770.09;4978863;28;20046;-79
2021/03/17 10:37:30;;;;;;;8.70;4.43;;;;;;;10.22;73.81;101779.44;4972537;28;20103;-79
2021/03/17 10:40:06;;;;;;;10.75;4.13;;;;;;;9.93;73.96;101778.25;4978639;28;20094;-79
2021/03/17 10:42:31;;;;;;;12.93;4.97;;;;;;;10.11;74.04;101784.38;4972314;28;20034;-79
2021/03/17 10:45:08;;;;;;;13.57;4.93;;;;;;;9.93;73.83;101772.88;4974004;28;20038;-79
2021/03/17 10:47:34;;;;;;;12.25;5.00;;;;;;;10.15;74.75;101781.81;4975688;28;20031;-79
2021/03/17 10:50:01;;;;;;;9.50;4.22;;;;;;;10.44;72.46;101771.88;4978344;28;20030;-79
2021/03/17 10:52:43;;;;;;;8.40;5.10;;;;;;;10.38;71.24;101778.53;4978841;28;20513;-79
2021/03/17 10:55:13;;;;;;;9.43;4.75;;;;;;;10.39;72.39;101777.44;4985980;28;20037;-79
2021/03/17 10:57:38;;;;;;;10.80;4.05;;;;;;;10.75;71.36;101769.59;4994935;28;20038;-79
2021/03/17 11:00:25;;;;;;;12.55;4.72;;;;;;;10.87;70.32;101772.38;4976882;28;20035;-79
2021/03/17 11:02:51;;;;;;;9.90;4.15;;;;;;;10.78;70.75;101778.94;4963361;28;22347;-79
2021/03/17 11:05:20;;;;;;;14.48;4.35;;;;;;;10.86;69.70;101770.78;4977348;28;20038;-79
2021/03/17 11:07:50;;;;;;;15.65;4.85;;;;;;;11.11;70.09;101762.84;4987091;28;20031;-79
2021/03/17 11:10:36;;;;;;;8.15;4.20;;;;;;;11.31;69.35;101773.56;4971829;28;20078;-79
2021/03/17 11:13:26;;;;;;;14.10;4.30;;;;;;;11.62;67.69;101775.81;4971265;28;20038;-79
2021/03/17 11:15:55;;;;;;;7.30;4.10;;;;;;;11.63;64.13;101774.69;4970210;28;20031;-78
2021/03/17 11:18:21;;;;;;;10.68;4.05;;;;;;;11.31;64.49;101773.56;4974267;28;20122;-79
2021/03/17 11:20:48;;;;;;;6.28;3.70;;;;;;;11.53;65.49;101767.81;4972915;28;20085;-79
2021/03/17 11:23:14;;;;;;;8.85;3.78;;;;;;;11.67;64.15;101768.31;4975281;28;20034;-79
2021/03/17 11:25:40;;;;;;;11.88;3.60;;;;;;;11.66;63.75;101763.25;4975042;28;20035;-79
2021/03/17 11:28:14;;;;;;;8.43;4.28;;;;;;;11.62;64.37;101768.50;4975274;28;20045;-79
2021/03/17 11:30:45;;;;;;;7.40;4.25;;;;;;;11.73;63.70;101768.88;4975170;28;20131;-78
2021/03/17 11:33:14;;;;;;;10.13;4.00;;;;;;;11.79;62.34;101767.53;5000902;28;20034;-79
2021/03/17 11:35:44;;;;;;;11.85;4.40;;;;;;;12.01;63.30;101772.53;4975556;28;20130;-79
2021/03/17 11:38:10;;;;;;;9.30;4.32;;;;;;;12.11;62.80;101769.41;4977767;28;20050;-79
2021/03/17 11:40:36;;;;;;;10.35;4.05;;;;;;;12.21;62.41;101770.84;4973743;28;20031;-79
2021/03/17 11:43:07;;;;;;;9.90;4.30;;;;;;;12.22;62.08;101769.72;4977154;28;20443;-79
2021/03/17 11:45:33;;;;;;;7.05;4.28;;;;;;;12.26;61.14;101768.72;4958204;28;20031;-79
2021/03/17 11:47:59;;;;;;;7.97;4.15;;;;;;;12.53;61.09;101770.72;4976408;28;20061;-79
2021/03/17 11:50:24;;;;;;;8.95;3.47;;;;;;;12.76;59.94;101775.63;4976777;28;20039;-79